Time;durP1;ratioP1;P1;durP2;ratioP2;P2;SDS_P1;SDS_P2;PMS_P1;PMS_P2;Temp;Humidity;BMP_temperature;BMP_pressure;BME280_temperature;BME280_humidity;BME280_pressure;Samples;Min_cycle;Max_cycle;Signal;HPM_P1;HPM_P2
2021/09/21 00:02:34;;;;;;;9.30;8.40;;;;;;;12.68;67.94;102587.97;6136664;28;20258;-51
2021/09/21 00:05:55;;;;;;;11.60;9.03;;;;;;;12.75;68.26;102590.66;6134637;28;20207;-48
2021/09/21 00:09:16;;;;;;;10.67;9.57;;;;;;;12.75;68.45;102595.03;6136354;28;20203;-47
2021/09/21 00:12:38;;;;;;;10.97;9.87;;;;;;;12.58;68.49;102600.06;6139357;28;20223;-50
2021/09/21 00:15:59;;;;;;;10.37;9.37;;;;;;;12.62;68.47;102596.66;6137517;28;20276;-49
2021/09/21 00:19:20;;;;;;;10.10;9.20;;;;;;;12.50;69.23;102607.81;6143299;28;20227;-52
2021/09/21 00:22:42;;;;;;;11.47;10.10;;;;;;;12.39;69.89;102609.44;6140644;28;20246;-50
2021/09/21 00:26:03;;;;;;;9.97;9.10;;;;;;;12.51;69.37;102612.19;6140096;28;20235;-46
2021/09/21 00:29:26;;;;;;;12.03;10.83;;;;;;;12.27;70.19;102615.41;6140346;28;20302;-50
2021/09/21 00:32:49;;;;;;;10.47;9.37;;;;;;;12.45;69.39;102616.50;6138290;28;20222;-46
2021/09/21 00:36:10;;;;;;;9.77;8.60;;;;;;;12.34;70.20;102606.75;6137029;28;20238;-51
2021/09/21 00:39:31;;;;;;;10.40;8.90;;;;;;;12.35;69.83;102611.16;6134156;28;20199;-51
2021/09/21 00:42:53;;;;;;;9.20;8.30;;;;;;;11.99;71.06;102607.19;6140253;28;20238;-51
2021/09/21 00:46:15;;;;;;;10.57;9.57;;;;;;;12.36;69.63;102594.59;6139893;28;20227;-54
2021/09/21 00:49:36;;;;;;;9.97;9.03;;;;;;;12.49;69.32;102599.97;6141688;28;20192;-50
2021/09/21 00:52:59;;;;;;;10.30;9.37;;;;;;;12.38;69.50;102594.63;6140233;28;20235;-50
2021/09/21 00:56:20;;;;;;;10.57;9.60;;;;;;;12.38;69.89;102599.84;6136561;28;20231;-50
2021/09/21 00:59:42;;;;;;;9.60;8.73;;;;;;;12.48;70.03;102600.81;6137750;28;20576;-50
2021/09/21 01:03:05;;;;;;;8.83;8.03;;;;;;;12.68;68.40;102591.47;6136789;28;20802;-51
2021/09/21 01:06:26;;;;;;;9.83;8.83;;;;;;;12.74;68.46;102599.38;6135830;28;20516;-50
2021/09/21 01:09:47;;;;;;;9.53;8.50;;;;;;;12.67;68.59;102587.09;6134940;28;20199;-50
2021/09/21 01:13:08;;;;;;;9.83;8.20;;;;;;;12.84;67.70;102594.25;6131871;28;20565;-49
2021/09/21 01:16:29;;;;;;;10.30;9.30;;;;;;;12.85;67.98;102596.00;6140367;28;20227;-46
2021/09/21 01:19:51;;;;;;;9.57;8.57;;;;;;;12.87;67.57;102594.25;6140517;28;20195;-48
2021/09/21 01:23:14;;;;;;;10.20;8.47;;;;;;;12.93;67.41;102594.31;6140730;28;20235;-52
2021/09/21 01:26:35;;;;;;;9.97;8.50;;;;;;;12.71;67.64;102588.88;6143408;28;20227;-51
2021/09/21 01:29:57;;;;;;;8.00;7.30;;;;;;;12.90;67.49;102586.47;6141522;28;20215;-51
2021/09/21 01:33:19;;;;;;;8.57;7.70;;;;;;;12.95;67.04;102589.97;6143500;28;20235;-49
2021/09/21 01:36:40;;;;;;;9.73;8.83;;;;;;;13.09;66.12;102591.00;6143780;28;20314;-48
2021/09/21 01:40:04;;;;;;;8.67;7.77;;;;;;;13.07;66.04;102587.50;6144059;28;20208;-47
2021/09/21 01:43:25;;;;;;;9.43;8.53;;;;;;;13.04;66.39;102587.44;6136695;28;20243;-46
2021/09/21 01:46:47;;;;;;;9.37;8.47;;;;;;;13.08;65.69;102589.22;6145101;28;20333;-51
2021/09/21 01:54:00;;;;;;;7.87;7.17;;;;;;;12.84;65.87;102581.19;6131904;28;20224;-48
2021/09/21 02:01:01;;;;;;;8.87;8.07;;;;;;;12.06;67.17;102565.47;6140035;28;20354;-54
2021/09/21 02:04:22;;;;;;;8.07;7.33;;;;;;;12.76;65.38;102563.69;6145195;28;20211;-50
2021/09/21 02:07:43;;;;;;;8.03;7.27;;;;;;;12.92;65.03;102561.19;6145144;28;20231;-52
2021/09/21 02:11:04;;;;;;;8.97;8.07;;;;;;;13.06;65.08;102566.56;6141723;28;20231;-49
2021/09/21 02:14:27;;;;;;;9.30;8.40;;;;;;;13.08;64.56;102563.06;6138061;28;20785;-51
2021/09/21 02:17:48;;;;;;;7.27;6.63;;;;;;;13.08;64.94;102555.22;6143584;28;20262;-50
2021/09/21 02:21:09;;;;;;;8.90;8.10;;;;;;;13.08;64.96;102550.00;6145476;28;20234;-46
2021/09/21 02:24:30;;;;;;;9.00;8.20;;;;;;;13.20;65.05;102552.72;6144114;28;20224;-48
2021/09/21 02:27:51;;;;;;;8.50;7.73;;;;;;;13.18;64.87;102561.41;6144255;28;20235;-51
2021/09/21 02:31:13;;;;;;;8.80;7.90;;;;;;;13.16;65.44;102553.56;6141251;28;20605;-50
2021/09/21 02:34:34;;;;;;;8.10;7.30;;;;;;;13.20;64.92;102552.72;6143493;28;20196;-51
2021/09/21 02:37:55;;;;;;;9.23;8.37;;;;;;;13.25;64.06;102557.97;6145354;28;20235;-50
2021/09/21 02:41:16;;;;;;;8.93;7.83;;;;;;;13.40;63.90;102565.13;6141155;28;20354;-48
2021/09/21 02:44:37;;;;;;;8.20;7.40;;;;;;;13.52;63.06;102574.78;6138846;28;22096;-53
2021/09/21 02:47:59;;;;;;;8.77;7.97;;;;;;;13.54;62.86;102573.06;6144470;28;20547;-52
2021/09/21 02:51:21;;;;;;;9.27;8.47;;;;;;;13.33;63.68;102581.63;6144072;28;20223;-53
2021/09/21 02:54:42;;;;;;;9.60;8.57;;;;;;;13.30;63.99;102581.59;6142425;28;20195;-52
2021/09/21 02:58:03;;;;;;;8.93;8.07;;;;;;;13.32;63.96;102598.22;6140157;28;20862;-53
2021/09/21 03:01:24;;;;;;;8.77;7.97;;;;;;;13.39;63.52;102607.84;6141007;28;20538;-51
2021/09/21 03:04:52;;;;;;;8.97;8.03;;;;;;;13.28;64.07;102620.81;6144162;28;20220;-47
2021/09/21 03:08:15;;;;;;;8.43;7.63;;;;;;;13.08;64.41;102625.84;6139830;28;20226;-53
2021/09/21 03:11:41;;;;;;;28.53;25.90;;;;;;;13.35;64.28;102624.38;6137705;28;20231;-50
2021/09/21 03:18:41;;;;;;;9.83;8.70;;;;;;;13.47;63.57;102618.34;6141562;28;20235;-49
2021/09/21 03:22:03;;;;;;;9.33;8.43;;;;;;;13.30;63.63;102618.22;6141852;28;20255;-51
2021/09/21 03:25:24;;;;;;;8.77;7.83;;;;;;;12.98;64.45;102613.56;6137847;28;20539;-52
2021/09/21 03:28:45;;;;;;;8.70;7.90;;;;;;;13.30;63.59;102598.19;6142868;28;20290;-48
2021/09/21 03:32:06;;;;;;;8.23;7.43;;;;;;;13.38;63.14;102608.72;6131382;28;20231;-49
2021/09/21 03:35:27;;;;;;;8.10;7.30;;;;;;;13.31;63.01;102607.78;6142317;28;20573;-50
2021/09/21 03:38:49;;;;;;;8.60;7.80;;;;;;;13.34;63.21;102612.19;6141124;28;20722;-48
2021/09/21 03:42:12;;;;;;;7.97;7.37;;;;;;;13.28;63.17;102604.22;6136098;28;20228;-50
2021/09/21 03:45:34;;;;;;;9.57;8.20;;;;;;;13.38;62.54;102599.13;6138471;28;20201;-50
2021/09/21 03:48:56;;;;;;;8.17;7.43;;;;;;;13.51;62.41;102605.31;6141310;28;20204;-48
2021/09/21 03:52:17;;;;;;;9.07;7.93;;;;;;;13.48;62.40;102607.91;6138894;28;20235;-52
2021/09/21 03:55:40;;;;;;;11.23;8.10;;;;;;;13.39;62.27;102619.16;6142540;28;20566;-51
2021/09/21 03:59:01;;;;;;;8.30;7.40;;;;;;;13.18;62.81;102614.63;6140902;28;20584;-51
2021/09/21 04:02:22;;;;;;;7.83;7.13;;;;;;;13.27;62.40;102607.72;6135162;28;20235;-52
2021/09/21 04:05:43;;;;;;;7.63;6.93;;;;;;;13.36;62.38;102605.22;6139935;28;20219;-52
2021/09/21 04:09:04;;;;;;;8.30;7.47;;;;;;;13.49;62.60;102614.91;6140585;28;21026;-50
2021/09/21 04:12:26;;;;;;;7.40;6.77;;;;;;;13.44;62.14;102618.34;6137417;28;20338;-52
2021/09/21 04:15:48;;;;;;;7.23;6.30;;;;;;;13.36;62.72;102613.06;6135641;28;20207;-47
2021/09/21 04:19:09;;;;;;;8.20;7.27;;;;;;;13.38;62.77;102608.72;6140473;28;20572;-49
2021/09/21 04:22:29;;;;;;;8.93;8.03;;;;;;;13.29;63.42;102611.22;6143425;28;20235;-47
2021/09/21 04:25:50;;;;;;;7.43;6.77;;;;;;;12.89;63.59;102603.00;6136366;28;20199;-49
2021/09/21 04:29:13;;;;;;;9.17;8.20;;;;;;;13.33;62.35;102597.31;6143077;28;20231;-47
2021/09/21 04:32:34;;;;;;;9.23;8.27;;;;;;;13.48;62.66;102597.44;6139099;28;20730;-50
2021/09/21 04:35:55;;;;;;;7.17;6.47;;;;;;;13.65;61.13;102601.91;6137879;28;21546;-49
2021/09/21 04:39:17;;;;;;;12.20;7.53;;;;;;;13.50;61.44;102607.94;6133668;28;20211;-49
2021/09/21 04:42:38;;;;;;;9.30;8.40;;;;;;;13.49;62.11;102596.59;6136954;28;20629;-52
2021/09/21 04:46:00;;;;;;;8.63;7.73;;;;;;;13.41;62.33;102613.09;6133816;28;20239;-51
2021/09/21 04:49:21;;;;;;;9.43;8.60;;;;;;;13.50;62.05;102610.53;6139550;28;21992;-50
2021/09/21 04:52:42;;;;;;;9.20;8.37;;;;;;;13.52;61.90;102608.81;6142953;28;20228;-49
2021/09/21 04:56:03;;;;;;;9.20;8.30;;;;;;;13.41;61.21;102597.38;6139887;28;20578;-51
2021/09/21 04:59:26;;;;;;;9.80;8.23;;;;;;;13.52;61.08;102607.06;6139546;28;20223;-51
2021/09/21 05:02:48;;;;;;;7.40;6.80;;;;;;;13.71;60.86;102612.44;6136219;28;20242;-50
2021/09/21 05:06:09;;;;;;;8.60;7.40;;;;;;;13.83;60.63;102617.75;6137589;28;20223;-53
2021/09/21 05:09:30;;;;;;;10.27;8.80;;;;;;;13.74;61.02;102622.91;6138362;28;20196;-51
2021/09/21 05:12:51;;;;;;;9.43;7.53;;;;;;;13.81;60.58;102629.09;6140432;28;20223;-50
2021/09/21 05:16:13;;;;;;;10.07;9.07;;;;;;;13.79;61.10;102640.41;6142339;28;20227;-54
2021/09/21 05:19:35;;;;;;;8.50;7.70;;;;;;;13.81;60.86;102635.19;6138883;28;20215;-49
2021/09/21 05:22:56;;;;;;;8.20;7.40;;;;;;;13.83;60.96;102633.44;6137485;28;20231;-53
2021/09/21 05:26:18;;;;;;;8.47;7.57;;;;;;;13.86;nan;102628.25;6139144;28;20231;-52
2021/09/21 05:29:39;;;;;;;10.73;8.50;;;;;;;13.79;60.57;102619.47;6142183;28;20207;-51
2021/09/21 05:33:01;;;;;;;9.37;8.47;;;;;;;13.92;60.33;102622.16;6137573;28;20235;-49
2021/09/21 05:36:23;;;;;;;10.90;8.73;;;;;;;13.96;60.39;102618.69;6137871;28;20228;-52
2021/09/21 05:39:44;;;;;;;10.77;7.17;;;;;;;14.03;60.38;102627.47;6137111;28;20553;-51
2021/09/21 05:43:05;;;;;;;7.60;6.90;;;;;;;14.13;60.24;102630.16;6135867;28;20223;-50
2021/09/21 05:46:26;;;;;;;9.50;8.57;;;;;;;14.01;60.57;102637.91;6140369;28;20594;-50
2021/09/21 05:49:48;;;;;;;9.00;8.17;;;;;;;14.17;60.06;102638.88;6144395;28;20561;-52
2021/09/21 05:53:10;;;;;;;9.00;7.77;;;;;;;14.12;60.11;102645.84;6142995;28;20243;-50
2021/09/21 05:56:31;;;;;;;9.80;8.00;;;;;;;14.31;59.83;102639.81;6139442;28;21106;-51
2021/09/21 05:59:52;;;;;;;8.83;7.93;;;;;;;13.92;59.89;102633.53;6141182;28;20227;-52
2021/09/21 06:03:13;;;;;;;7.83;7.03;;;;;;;13.73;59.15;102637.75;6141474;28;20243;-56
2021/09/21 06:06:34;;;;;;;7.90;6.73;;;;;;;13.95;58.44;102649.22;6134682;28;20677;-50
2021/09/21 06:09:56;;;;;;;8.70;6.83;;;;;;;13.70;60.01;102644.72;6131390;28;20208;-52
2021/09/21 06:13:19;;;;;;;8.97;8.07;;;;;;;13.76;59.42;102644.75;6128598;28;20420;-52
2021/09/21 06:16:41;;;;;;;7.90;7.10;;;;;;;14.11;59.17;102659.81;6130755;28;20231;-45
2021/09/21 06:20:02;;;;;;;9.73;6.20;;;;;;;14.20;57.41;102666.84;6127796;28;20200;-47
2021/09/21 06:23:22;;;;;;;10.33;7.50;;;;;;;14.04;58.12;102663.28;6131667;28;20231;-45
2021/09/21 06:26:45;;;;;;;8.03;7.17;;;;;;;14.29;56.68;102656.44;6133090;28;20235;-53
2021/09/21 06:30:09;;;;;;;8.63;7.40;;;;;;;13.88;57.27;102662.28;6128074;28;20586;-54
2021/09/21 06:33:31;;;;;;;10.87;8.80;;;;;;;14.13;56.08;102673.78;6123566;28;20529;-51
2021/09/21 06:36:54;;;;;;;11.00;8.03;;;;;;;13.44;55.96;102666.34;6134372;28;20235;-52
2021/09/21 06:40:16;;;;;;;10.13;8.23;;;;;;;13.46;55.98;102675.06;6139649;28;20211;-52
2021/09/21 06:43:38;;;;;;;9.60;7.47;;;;;;;14.01;54.49;102671.09;6137893;28;20235;-49
2021/09/21 06:47:00;;;;;;;9.13;7.63;;;;;;;14.13;54.24;102682.53;6138377;28;20340;-49
2021/09/21 06:50:21;;;;;;;7.50;6.80;;;;;;;14.24;53.69;102686.97;6142307;28;20208;-50
2021/09/21 06:53:42;;;;;;;8.33;7.53;;;;;;;13.86;55.21;102685.88;6139613;28;20859;-49
2021/09/21 06:57:03;;;;;;;8.13;7.30;;;;;;;14.05;55.04;102693.84;6134897;28;20231;-46
2021/09/21 07:00:25;;;;;;;7.93;7.13;;;;;;;13.93;54.82;102698.13;6138309;28;20223;-52
2021/09/21 07:03:47;;;;;;;6.70;6.00;;;;;;;13.91;56.27;102689.38;6138064;28;20219;-54
2021/09/21 07:07:08;;;;;;;6.13;5.63;;;;;;;13.77;57.11;102701.50;6138105;28;20235;-50
2021/09/21 07:10:29;;;;;;;7.00;6.37;;;;;;;13.70;58.91;102702.31;6143560;28;20446;-52
2021/09/21 07:13:50;;;;;;;7.33;6.57;;;;;;;14.02;58.35;102717.41;6143868;28;20228;-49
2021/09/21 07:17:12;;;;;;;11.67;6.70;;;;;;;13.48;60.26;102702.13;6143296;28;20231;-52
2021/09/21 07:20:33;;;;;;;7.07;5.80;;;;;;;13.42;60.01;102699.47;6142447;28;20506;-50
2021/09/21 07:23:54;;;;;;;6.17;5.57;;;;;;;13.73;59.35;102705.84;6131983;28;20223;-56
2021/09/21 07:27:15;;;;;;;6.67;6.03;;;;;;;13.65;59.84;102709.25;6138527;28;20305;-55
2021/09/21 07:30:36;;;;;;;7.10;6.40;;;;;;;13.64;60.76;102703.13;6141657;28;20207;-55
2021/09/21 07:33:59;;;;;;;7.10;6.47;;;;;;;12.82;63.19;102701.44;6141036;28;20648;-51
2021/09/21 07:37:21;;;;;;;7.67;6.77;;;;;;;13.45;62.04;102704.72;6139195;28;20231;-54
2021/09/21 07:40:42;;;;;;;7.97;7.17;;;;;;;12.77;64.47;102709.19;6133973;28;20191;-51
2021/09/21 07:44:04;;;;;;;8.77;7.87;;;;;;;13.04;64.40;102720.84;6142183;28;20235;-51
2021/09/21 07:47:26;;;;;;;9.33;7.03;;;;;;;13.41;63.86;102710.78;6136848;28;20232;-54
2021/09/21 07:50:51;;;;;;;9.97;8.97;;;;;;;13.56;63.83;102713.53;6136962;28;20215;-53
2021/09/21 07:54:12;;;;;;;10.70;7.73;;;;;;;13.64;63.25;102721.47;6130180;28;20223;-54
2021/09/21 07:57:33;;;;;;;8.03;7.23;;;;;;;13.27;65.51;102718.47;6141964;28;20262;-50
2021/09/21 08:00:55;;;;;;;8.40;7.57;;;;;;;13.88;63.07;102728.66;6137670;28;20228;-49
2021/09/21 08:04:16;;;;;;;9.83;8.83;;;;;;;13.46;64.25;102723.94;6137043;28;20188;-53
2021/09/21 08:07:40;;;;;;;13.57;10.60;;;;;;;13.68;63.31;102732.84;6143472;28;20341;-49
2021/09/21 08:11:02;;;;;;;11.90;9.30;;;;;;;13.80;62.56;102730.31;6143535;28;20326;-51
2021/09/21 08:14:23;;;;;;;11.57;9.43;;;;;;;13.37;63.64;102730.81;6142087;28;20313;-48
2021/09/21 08:17:44;;;;;;;12.90;11.67;;;;;;;13.69;63.37;102725.00;6141760;28;20235;-52
2021/09/21 08:21:05;;;;;;;12.17;10.30;;;;;;;13.67;62.96;102723.25;6138638;28;20322;-53
2021/09/21 08:24:27;;;;;;;13.30;9.40;;;;;;;13.66;62.67;102727.59;6137719;28;20510;-51
2021/09/21 08:27:49;;;;;;;12.53;11.47;;;;;;;13.79;63.10;102725.97;6141372;28;20310;-53
2021/09/21 08:31:10;;;;;;;13.33;10.80;;;;;;;14.16;62.29;102721.84;6141307;28;20617;-54
2021/09/21 08:34:31;;;;;;;12.53;11.37;;;;;;;13.67;63.28;102723.25;6140411;28;20498;-53
2021/09/21 08:37:52;;;;;;;14.87;11.40;;;;;;;13.66;63.57;102711.00;6139670;28;20231;-52
2021/09/21 08:41:14;;;;;;;23.83;13.33;;;;;;;13.89;62.46;102714.69;6142419;28;20668;-48
2021/09/21 08:44:37;;;;;;;15.27;10.23;;;;;;;13.65;62.79;102719.72;6141041;28;20211;-49
2021/09/21 08:47:57;;;;;;;17.57;12.57;;;;;;;13.80;62.89;102711.97;6139518;28;20235;-51
2021/09/21 08:51:18;;;;;;;11.70;10.37;;;;;;;13.70;62.38;102711.03;6140362;28;20262;-49
2021/09/21 08:54:40;;;;;;;12.23;9.53;;;;;;;13.52;62.75;102709.16;6134445;28;20605;-51
2021/09/21 08:58:02;;;;;;;9.90;8.67;;;;;;;13.31;61.62;102707.19;6133850;28;20633;-47
2021/09/21 09:01:24;;;;;;;13.47;8.70;;;;;;;13.58;60.75;102711.81;6135548;28;20220;-55
2021/09/21 09:04:58;;;;;;;12.03;8.90;;;;;;;13.70;60.67;102705.78;6140466;28;20203;-47
2021/09/21 09:08:30;;;;;;;12.07;8.47;;;;;;;13.79;59.99;102705.88;6137315;28;20227;-54
2021/09/21 09:11:53;;;;;;;9.67;8.23;;;;;;;14.07;59.48;102699.94;6138025;28;20231;-49
2021/09/21 09:15:18;;;;;;;8.90;7.93;;;;;;;14.41;58.66;102705.41;6140126;28;20200;-51
2021/09/21 09:18:40;;;;;;;8.50;7.67;;;;;;;14.68;57.01;102709.94;6142383;28;20310;-50
2021/09/21 09:22:07;;;;;;;10.17;7.60;;;;;;;14.85;56.89;102712.59;6140346;28;20227;-49
2021/09/21 09:25:28;;;;;;;8.20;7.40;;;;;;;13.74;58.54;102723.28;6138071;28;20224;-52
2021/09/21 09:28:49;;;;;;;8.17;7.30;;;;;;;13.47;59.56;102713.44;6137344;28;20228;-52
2021/09/21 09:32:11;;;;;;;7.23;6.53;;;;;;;13.64;59.93;102704.88;6131797;28;20235;-49
2021/09/21 09:35:34;;;;;;;16.70;9.37;;;;;;;13.92;59.85;102704.22;6135884;28;20238;-49
2021/09/21 09:38:59;;;;;;;11.87;8.77;;;;;;;14.44;58.43;102714.13;6136365;28;20231;-54
2021/09/21 09:42:20;;;;;;;12.33;8.37;;;;;;;14.16;59.82;102708.75;6136169;28;20227;-49
2021/09/21 09:45:44;;;;;;;10.20;8.23;;;;;;;14.09;59.06;102698.22;6138078;28;20224;-48
2021/09/21 09:49:07;;;;;;;10.53;7.47;;;;;;;14.14;58.69;102707.84;6143282;28;20223;-49
2021/09/21 09:52:37;;;;;;;8.40;7.53;;;;;;;14.08;58.61;102704.34;6146427;28;20621;-50
2021/09/21 09:55:59;;;;;;;13.03;7.00;;;;;;;14.28;58.49;102700.06;6148817;28;20231;-51
2021/09/21 09:59:22;;;;;;;10.07;6.40;;;;;;;14.08;58.52;102702.59;6146738;28;20211;-51
2021/09/21 10:02:44;;;;;;;10.13;7.47;;;;;;;13.86;59.20;102698.97;6141777;28;20223;-52
2021/09/21 10:06:06;;;;;;;9.93;7.33;;;;;;;14.24;58.60;102695.69;6143111;28;20231;-50
2021/09/21 10:09:27;;;;;;;10.17;7.93;;;;;;;14.47;57.56;102695.81;6143013;28;20204;-48
2021/09/21 10:12:49;;;;;;;14.00;9.13;;;;;;;14.26;58.38;102693.94;6138106;28;20318;-51
2021/09/21 10:16:11;;;;;;;8.17;7.30;;;;;;;14.28;58.81;102696.59;6142100;28;20647;-47
2021/09/21 10:19:35;;;;;;;8.83;7.20;;;;;;;14.30;58.76;102698.34;6136222;28;20620;-52
2021/09/21 10:22:58;;;;;;;9.63;7.10;;;;;;;15.31;56.39;102681.19;6139793;28;20239;-47
2021/09/21 10:26:20;;;;;;;7.70;6.87;;;;;;;14.96;56.83;102669.78;6139002;28;20243;-49
2021/09/21 10:29:41;;;;;;;12.00;7.13;;;;;;;15.39;56.51;102674.19;6139743;28;20200;-48
2021/09/21 10:33:02;;;;;;;7.33;6.63;;;;;;;15.00;57.13;102665.41;6131758;28;20235;-49
2021/09/21 10:36:24;;;;;;;10.07;7.80;;;;;;;15.06;57.49;102680.28;6142192;28;20239;-52
2021/09/21 10:39:46;;;;;;;8.90;8.03;;;;;;;14.82;57.97;102673.25;6145111;29;20195;-50
2021/09/21 10:43:25;;;;;;;7.97;6.90;;;;;;;15.64;56.14;102666.31;6131152;28;20250;-51
2021/09/21 10:46:50;;;;;;;7.80;6.90;;;;;;;15.46;56.81;102681.22;6142556;28;20752;-47
2021/09/21 10:50:13;;;;;;;7.10;6.30;;;;;;;15.48;56.35;102678.59;6133417;28;20195;-52
2021/09/21 10:53:34;;;;;;;6.50;5.50;;;;;;;15.57;56.35;102678.59;6128694;28;20227;-49
2021/09/21 10:57:10;;;;;;;12.40;8.43;;;;;;;15.70;56.71;102684.69;6130066;28;20228;-52
2021/09/21 11:00:34;;;;;;;6.53;5.93;;;;;;;15.93;55.85;102675.06;6133310;28;20264;-47
2021/09/21 11:03:55;;;;;;;8.03;6.43;;;;;;;15.88;56.58;102665.47;6140836;28;20231;-51
2021/09/21 11:07:16;;;;;;;9.27;7.33;;;;;;;16.12;56.02;102651.38;6138739;28;20263;-49
2021/09/21 11:10:41;;;;;;;8.17;6.70;;;;;;;16.20;55.30;102652.22;6137723;28;20231;-49
2021/09/21 11:14:03;;;;;;;8.60;6.03;;;;;;;15.69;57.20;102656.69;6140057;28;20353;-47
2021/09/21 11:17:27;;;;;;;6.93;6.13;;;;;;;15.66;57.53;102651.44;6136174;28;20231;-49
2021/09/21 11:20:49;;;;;;;11.67;7.53;;;;;;;15.60;58.10;102651.44;6137712;28;20873;-49
2021/09/21 11:24:10;;;;;;;7.50;6.80;;;;;;;15.51;58.74;102653.22;6129444;28;20701;-50
2021/09/21 11:27:33;;;;;;;7.33;5.37;;;;;;;15.89;57.73;102643.56;6110948;28;20276;-51
2021/09/21 11:30:57;;;;;;;8.13;7.33;;;;;;;15.85;58.61;102647.94;6132348;28;20219;-51
2021/09/21 11:34:18;;;;;;;7.20;6.13;;;;;;;15.74;58.47;102634.84;6129742;28;20195;-47
2021/09/21 11:37:41;;;;;;;10.30;7.03;;;;;;;15.51;58.92;102647.09;6132487;28;20231;-49
2021/09/21 11:41:03;;;;;;;8.50;7.60;;;;;;;15.86;58.54;102640.97;6134916;28;20664;-50
2021/09/21 11:44:25;;;;;;;9.60;6.10;;;;;;;15.71;58.67;102633.94;6137769;28;20195;-54
2021/09/21 11:47:48;;;;;;;26.43;9.20;;;;;;;16.25;57.55;102626.81;6120842;28;20270;-48
2021/09/21 11:51:09;;;;;;;34.67;12.63;;;;;;;15.85;58.82;102640.06;6139780;28;20227;-50
2021/09/21 11:54:32;;;;;;;9.37;6.97;;;;;;;15.84;59.19;102640.06;6140579;28;20231;-48
2021/09/21 11:57:54;;;;;;;6.93;6.23;;;;;;;16.00;59.04;102625.16;6138973;28;20235;-48
2021/09/21 12:01:16;;;;;;;23.00;7.00;;;;;;;16.13;58.81;102618.97;6128783;28;20227;-52
2021/09/21 12:04:43;;;;;;;7.40;5.23;;;;;;;16.21;58.75;102619.81;6130873;28;20195;-49
2021/09/21 12:08:08;;;;;;;10.37;6.17;;;;;;;16.24;58.98;102616.28;6130274;28;20573;-51
2021/09/21 12:11:29;;;;;;;9.43;6.27;;;;;;;15.94;59.82;102611.16;6129765;28;20243;-51
2021/09/21 12:14:58;;;;;;;7.17;6.30;;;;;;;16.11;59.80;102629.50;6131301;28;20207;-53
2021/09/21 12:18:19;;;;;;;9.27;5.87;;;;;;;16.23;59.54;102618.06;6135237;28;20227;-47
2021/09/21 12:21:43;;;;;;;10.30;6.13;;;;;;;16.14;60.16;102616.31;6127467;28;20572;-50
2021/09/21 12:25:09;;;;;;;16.27;7.93;;;;;;;16.01;60.50;102606.72;6141560;28;20646;-55
2021/09/21 12:28:32;;;;;;;7.03;5.93;;;;;;;16.49;59.04;102611.78;6139343;28;20637;-53
2021/09/21 12:31:55;;;;;;;9.60;5.30;;;;;;;16.69;58.49;102617.84;6134759;28;20246;-52
2021/09/21 12:35:16;;;;;;;5.87;5.37;;;;;;;16.74;58.79;102613.41;6137112;28;20192;-53
2021/09/21 12:38:38;;;;;;;6.43;5.63;;;;;;;16.81;58.69;102610.72;6134299;28;20224;-48
2021/09/21 12:42:01;;;;;;;12.77;7.57;;;;;;;16.69;59.04;102601.16;6141590;28;20231;-52
2021/09/21 12:45:22;;;;;;;27.47;9.23;;;;;;;16.70;59.54;102609.03;6135933;28;20223;-53
2021/09/21 12:48:44;;;;;;;7.30;5.70;;;;;;;16.79;59.04;102605.50;6117507;28;20252;-53
2021/09/21 12:52:05;;;;;;;12.43;8.07;;;;;;;16.97;58.90;102595.75;6136206;28;20223;-51
2021/09/21 12:55:30;;;;;;;9.40;5.90;;;;;;;16.95;59.11;102593.13;6139929;28;20247;-54
2021/09/21 12:58:51;;;;;;;7.40;6.50;;;;;;;16.79;59.27;102591.44;6140667;28;20231;-49
2021/09/21 13:02:12;;;;;;;6.10;5.50;;;;;;;17.80;56.88;102592.34;6136715;28;20228;-49
2021/09/21 13:05:35;;;;;;;6.67;5.97;;;;;;;18.38;55.21;102591.66;6135780;28;20494;-51
2021/09/21 13:08:56;;;;;;;7.90;6.57;;;;;;;18.60;54.09;102594.88;6140424;28;20247;-51
2021/09/21 13:12:18;;;;;;;7.22;6.13;;;;;;;18.41;54.91;102588.09;6136960;28;20717;-52
2021/09/21 13:15:41;;;;;;;125.87;28.80;;;;;;;18.52;55.22;102580.91;6138534;28;20293;-49
2021/09/21 13:19:02;;;;;;;15.63;7.00;;;;;;;19.07;53.16;102580.06;6144156;28;20287;-49
2021/09/21 13:22:23;;;;;;;22.38;8.98;;;;;;;18.75;53.80;102579.72;6145146;28;20230;-51
2021/09/21 13:25:44;;;;;;;7.80;6.95;;;;;;;19.60;52.13;102587.06;6147352;28;20203;-54
2021/09/21 13:29:07;;;;;;;12.10;6.65;;;;;;;19.47;52.00;102587.31;6137322;28;20266;-52
2021/09/21 13:32:28;;;;;;;10.60;6.97;;;;;;;20.36;50.18;102576.75;6144063;28;20239;-51
2021/09/21 13:35:49;;;;;;;22.45;11.10;;;;;;;19.10;52.92;102578.31;6138563;28;20195;-51
2021/09/21 13:39:10;;;;;;;8.50;7.28;;;;;;;19.21;53.17;102576.34;6142174;28;20196;-49
2021/09/21 13:42:31;;;;;;;8.05;6.18;;;;;;;19.29;53.28;102577.09;6141675;28;20495;-47
2021/09/21 13:45:53;;;;;;;5.63;5.15;;;;;;;18.76;54.93;102595.50;6136356;28;20696;-53
2021/09/21 13:49:16;;;;;;;7.22;5.68;;;;;;;18.24;56.53;102588.31;6132844;28;20458;-48
2021/09/21 13:52:37;;;;;;;7.07;5.97;;;;;;;17.60;58.27;102571.47;6138754;28;20228;-49
2021/09/21 13:55:58;;;;;;;8.03;5.80;;;;;;;18.12;57.65;102572.66;6135388;28;20223;-51
2021/09/21 13:59:19;;;;;;;7.07;6.38;;;;;;;18.08;57.40;102569.19;6144231;28;20247;-50
2021/09/21 14:02:44;;;;;;;8.90;5.70;;;;;;;18.15;57.44;102564.72;6131408;28;20239;-48
2021/09/21 14:06:05;;;;;;;7.90;5.53;;;;;;;18.31;56.90;102566.25;6140969;28;20231;-51
2021/09/21 14:09:27;;;;;;;5.70;5.03;;;;;;;18.62;55.82;102565.81;6145475;28;20247;-48
2021/09/21 14:12:48;;;;;;;7.73;7.03;;;;;;;18.46;56.50;102570.47;6142022;28;20227;-52
2021/09/21 14:16:10;;;;;;;10.10;6.17;;;;;;;17.63;58.97;102551.25;6144231;28;20617;-50
2021/09/21 14:19:33;;;;;;;7.70;6.50;;;;;;;17.88;58.59;102548.38;6143585;28;20226;-51
2021/09/21 14:22:54;;;;;;;7.13;6.03;;;;;;;17.75;58.95;102554.63;6146305;28;20318;-48
2021/09/21 14:26:15;;;;;;;8.60;7.00;;;;;;;17.39;59.97;102559.38;6145339;28;20637;-51
2021/09/21 14:29:36;;;;;;;7.37;6.60;;;;;;;17.18;60.46;102550.81;6141758;28;20235;-53
2021/09/21 14:32:58;;;;;;;7.60;6.07;;;;;;;17.54;59.92;102550.47;6141392;28;20235;-49
2021/09/21 14:36:21;;;;;;;9.23;7.30;;;;;;;17.39;60.49;102551.50;6141813;28;20319;-51
2021/09/21 14:39:43;;;;;;;7.87;6.73;;;;;;;17.48;60.09;102554.91;6142295;28;20598;-51
2021/09/21 14:43:04;;;;;;;8.67;7.20;;;;;;;17.15;61.17;102563.13;6143002;28;20267;-49
2021/09/21 14:46:26;;;;;;;7.20;6.43;;;;;;;17.30;60.79;102547.19;6143228;28;20509;-53
2021/09/21 14:49:48;;;;;;;7.63;6.90;;;;;;;17.16;61.06;102549.97;6142417;28;20227;-48
2021/09/21 14:53:10;;;;;;;9.67;8.63;;;;;;;17.04;61.88;102539.53;6141643;28;20636;-52
2021/09/21 14:56:32;;;;;;;8.87;6.67;;;;;;;17.08;61.85;102546.53;6128768;28;20662;-49
2021/09/21 14:59:52;;;;;;;8.67;6.97;;;;;;;17.02;62.22;102538.66;6137264;28;20239;-51
2021/09/21 15:03:14;;;;;;;7.57;6.97;;;;;;;17.50;60.85;102529.41;6134083;28;20266;-51
2021/09/21 15:06:35;;;;;;;12.17;8.37;;;;;;;16.99;62.06;102549.25;6127553;28;20243;-50
2021/09/21 15:09:57;;;;;;;7.80;7.00;;;;;;;16.83;63.09;102533.56;6140852;28;20220;-53
2021/09/21 15:13:18;;;;;;;8.00;7.23;;;;;;;16.83;64.07;102535.34;6130487;28;20231;-54
2021/09/21 15:16:39;;;;;;;6.93;6.23;;;;;;;16.47;66.40;102537.31;6133279;28;20235;-51
2021/09/21 15:20:02;;;;;;;9.40;7.10;;;;;;;16.53;67.75;102542.50;6135138;28;20216;-52
2021/09/21 15:23:24;;;;;;;9.53;7.77;;;;;;;16.32;69.90;102539.16;6138473;28;20262;-47
2021/09/21 15:26:46;;;;;;;10.47;9.33;;;;;;;16.19;71.46;102537.47;6117206;28;20231;-52
2021/09/21 15:30:11;;;;;;;9.70;8.50;;;;;;;16.38;70.58;102530.38;6108190;28;20203;-51
2021/09/21 15:33:33;;;;;;;11.43;10.30;;;;;;;16.12;72.08;102527.84;6106311;28;20235;-51
2021/09/21 15:36:55;;;;;;;11.30;9.23;;;;;;;15.96;72.73;102518.31;6102173;28;20231;-51
2021/09/21 15:40:19;;;;;;;12.27;10.27;;;;;;;15.96;72.53;102526.19;6105831;28;20457;-54
2021/09/21 15:43:41;;;;;;;12.43;10.60;;;;;;;16.36;71.48;102528.59;6102003;28;20309;-55
2021/09/21 15:47:08;;;;;;;11.00;9.43;;;;;;;16.40;70.74;102531.22;6109010;28;20231;-50